Pride — ZDFD7 — position and weather

sailwx.info

Track history (hours):
 
Tides and Currents Weather Stations Pressure Air Temp Water Temp Dewpoint Dewpoint Depression Visibility Wind Speed Wind Dir Waves Ship Positions

Pride

Last reported at 2015-Apr-21 03:18 UTC. Time now 2015-Apr-21 14:40 UTC.
Position N 54°42' E 020°25'.

Length 89 m; draft 3.5 m.

Type: Ship. MMSI: 236166000.

Date/timePositionNaut miles runAvg speedWind from/ knotsBaromVisibWave heightAir tempDewpointWater temp
2015-Apr-21 03:18N 54°42' E 020°25'8 8.2
2015-Apr-21 02:20N 54°41' E 020°11'7 9.1
2015-Apr-21 01:32N 54°38' E 019°59'7 7.0
2015-Apr-21 00:33N 54°39' E 019°47'0 0.1
2015-Apr-20 23:11N 54°39' E 019°48'0 0.0
2015-Apr-20 22:33N 54°39' E 019°48'0 0.0
2015-Apr-20 21:32N 54°39' E 019°48'0 0.0
2015-Apr-20 20:20N 54°39' E 019°48'0 0.0
2015-Apr-20 19:19N 54°39' E 019°48'0 0.0
2015-Apr-20 18:06N 54°39' E 019°48'0 0.0
2015-Apr-20 17:32N 54°39' E 019°48'0 0.0
2015-Apr-20 16:24N 54°39' E 019°48'0 0.0
2015-Apr-20 15:29N 54°39' E 019°48'0 0.0
2015-Apr-20 14:28N 54°39' E 019°48'0 0.0
2015-Apr-20 10:25N 54°39' E 019°48'0 0.0
2015-Apr-20 07:04N 54°39' E 019°48'0 0.0
2015-Apr-20 05:23N 54°39' E 019°48'0 0.0
2015-Apr-20 04:26N 54°39' E 019°48'0 0.0
2015-Apr-20 03:21N 54°39' E 019°48'0 0.0
2015-Apr-20 02:32N 54°39' E 019°48'0 0.0
2015-Apr-20 01:25N 54°39' E 019°48'0 0.1
2015-Apr-20 00:30N 54°39' E 019°48'0 0.0
2015-Apr-19 23:17N 54°39' E 019°48'0 0.0
2015-Apr-19 22:30N 54°39' E 019°48'0 0.0
2015-Apr-19 19:31N 54°39' E 019°48'0 0.0
2015-Apr-19 17:15N 54°39' E 019°48'0 0.0
2015-Apr-19 16:30N 54°39' E 019°48'0 0.0
2015-Apr-19 15:30N 54°39' E 019°48'0 0.0
2015-Apr-19 14:08N 54°39' E 019°48'0 0.0
2015-Apr-19 13:30N 54°39' E 019°48'0 0.0
2015-Apr-19 12:30N 54°39' E 019°48'0 0.0
2015-Apr-19 06:23N 54°39' E 019°47'0 0.0
2015-Apr-19 05:31N 54°39' E 019°47'0 0.0
2015-Apr-19 04:33N 54°39' E 019°48'0 0.0
2015-Apr-19 03:19N 54°39' E 019°48'0 0.0
2015-Apr-19 02:26N 54°39' E 019°48'0 0.0
2015-Apr-19 01:33N 54°39' E 019°48'6 6.1
2015-Apr-19 00:30N 54°43' E 019°40'8 8.9
2015-Apr-18 23:33N 54°51' E 019°35'10 9.6
2015-Apr-18 22:33N 55°00' E 019°41'179 4.7
2015-Apr-17 08:11N 55°15' E 014°28'6 9.3
2015-Apr-17 07:33N 55°10' E 014°21'41 9.4
2015-Apr-17 03:10N 55°13' E 013°10'6 9.7
2015-Apr-17 02:33N 55°14' E 012°59'10 9.6
2015-Apr-17 01:33N 55°17' E 012°43'8 8.1
2015-Apr-17 00:34N 55°24' E 012°40'10 9.9
2015-Apr-16 23:34N 55°34' E 012°42'1111.1
2015-Apr-16 22:34N 55°45' E 012°41'1110.8
2015-Apr-16 21:34N 55°56' E 012°37'1010.1
2015-Apr-16 20:34N 56°06' E 012°33'1111.1
2015-Apr-16 19:34N 56°12' E 012°17'1110.6
2015-Apr-16 18:33N 56°20' E 012°03'1510.9
2015-Apr-16 17:09N 56°35' E 011°57'811.0
2015-Apr-16 16:26N 56°42' E 011°53'1011.5
2015-Apr-16 15:34N 56°52' E 011°48'1111.1
2015-Apr-16 14:34N 57°02' E 011°41'1110.8
2015-Apr-16 13:32N 57°13' E 011°34'1010.3
2015-Apr-16 12:34N 57°22' E 011°28'1010.1
2015-Apr-16 11:34N 57°31' E 011°18'10 9.8
2015-Apr-16 10:33N 57°37' E 011°04'9 9.4
2015-Apr-16 09:33N 57°44' E 010°51'1210.2
2015-Apr-16 08:22N 57°47' E 010°29'172 9.1
2015-Apr-15 13:34N 55°33' E 007°14'10 9.9
2015-Apr-15 12:33N 55°23' E 007°08'1010.1
2015-Apr-15 11:33N 55°14' E 007°02'1010.3
2015-Apr-15 10:33N 55°04' E 006°56'1210.3
2015-Apr-15 09:21N 54°53' E 006°48'1110.4
2015-Apr-15 08:17N 54°42' E 006°41'810.4
2015-Apr-15 07:32N 54°35' E 006°37'38 9.5
2015-Apr-15 03:30N 53°57' E 006°22'9 9.5
2015-Apr-15 02:33N 53°49' E 006°24'9 8.9
2015-Apr-15 01:33N 53°40' E 006°22'9 7.6
2015-Apr-15 00:26N 53°36' E 006°35'1011.5
2015-Apr-14 23:34N 53°30' E 006°48'1212.2
2015-Apr-14 22:33N 53°20' E 007°00'7 6.9
2015-Apr-14 21:33N 53°20' E 007°11'0 0.4
2015-Apr-14 20:33N 53°20' E 007°12'0 0.0
2015-Apr-14 19:30N 53°20' E 007°12'0 0.0
2015-Apr-14 18:33N 53°20' E 007°12'0 0.0
2015-Apr-14 17:33N 53°20' E 007°12'0 0.0
2015-Apr-14 16:33N 53°20' E 007°12'0 0.0
2015-Apr-14 15:33N 53°20' E 007°12'0 0.0
2015-Apr-14 14:34N 53°20' E 007°12'0 0.0
2015-Apr-14 13:33N 53°20' E 007°12'0 0.1
2015-Apr-14 12:33N 53°20' E 007°12'2 1.7
2015-Apr-14 11:33N 53°20' E 007°09'7 7.1
2015-Apr-14 10:33N 53°23' E 006°58'9 8.7
2015-Apr-14 09:33N 53°29' E 006°49'18 8.5
2015-Apr-14 07:26N 53°37' E 006°21'36 7.4
2015-Apr-14 02:33N 53°56' E 007°13'9 9.1
2015-Apr-14 01:33N 53°58' E 007°28'8 8.2
2015-Apr-14 00:33N 53°57' E 007°42'9 9.2
2015-Apr-13 23:33N 53°52' E 007°56'1111.0
2015-Apr-13 22:33N 53°46' E 008°11'1313.4
2015-Apr-13 21:34N 53°37' E 008°28'10 9.6
2015-Apr-13 20:33N 53°28' E 008°30'7 7.1
2015-Apr-13 19:31N 53°20' E 008°30'0 0.0
2015-Apr-13 18:20N 53°20' E 008°30'0 0.0
2015-Apr-13 17:13N 53°20' E 008°30'0 0.0
2015-Apr-13 16:24N 53°20' E 008°30'0 0.0
2015-Apr-13 15:28N 53°20' E 008°30'0 0.0
2015-Apr-13 14:31N 53°20' E 008°30'0 0.0
2015-Apr-13 13:03N 53°20' E 008°30'0 0.0
2015-Apr-13 12:33N 53°20' E 008°30'0 0.0
2015-Apr-13 11:26N 53°20' E 008°30'0 0.0
2015-Apr-13 10:32N 53°20' E 008°30'0 0.0
2015-Apr-13 09:30N 53°20' E 008°30'0 0.0
2015-Apr-13 08:30N 53°20' E 008°30'0 0.0
2015-Apr-13 05:20N 53°20' E 008°30'0 0.0
2015-Apr-13 04:18N 53°20' E 008°30'0 0.0
2015-Apr-13 03:32N 53°20' E 008°30'0 0.0
2015-Apr-13 02:31N 53°20' E 008°30'0 0.0
2015-Apr-13 01:10N 53°20' E 008°30'0 0.0
2015-Apr-12 21:28N 53°20' E 008°30'0 0.0
2015-Apr-12 20:33N 53°20' E 008°30'5 4.6
2015-Apr-12 19:33N 53°25' E 008°30'8 7.5
2015-Apr-12 18:33N 53°32' E 008°34'9 8.9
2015-Apr-12 17:33N 53°39' E 008°24'1010.0
2015-Apr-12 16:33N 53°45' E 008°11'1010.1
2015-Apr-12 15:33N 53°51' E 007°57'1110.6
2015-Apr-12 14:33N 53°54' E 007°40'1010.1
2015-Apr-12 13:33N 54°03' E 007°33'1010.4
2015-Apr-12 12:33N 54°12' E 007°25'10 9.6
2015-Apr-12 11:32N 54°22' E 007°23'9 9.2
2015-Apr-12 10:33N 54°31' E 007°22'12 9.3
2015-Apr-12 09:17N 54°43' E 007°22'7 9.2
2015-Apr-12 08:33N 54°49' E 007°21'9 9.0
2015-Apr-12 07:33N 54°58' E 007°21'9 8.9
2015-Apr-12 06:33N 55°07' E 007°20'9 8.8
2015-Apr-12 05:33N 55°16' E 007°20'9 8.7
2015-Apr-12 04:33N 55°25' E 007°20'174 8.2
2015-Apr-11 07:30N 57°47' E 010°21'11 9.3
2015-Apr-11 06:18N 57°48' E 010°43'5 6.9
2015-Apr-11 05:32N 57°43' E 010°47'9 9.4
2015-Apr-11 04:33N 57°34' E 010°45'1211.1
2015-Apr-11 03:29N 57°22' E 010°44'  
Track history (hours):
 
Tides and Currents Weather Stations Pressure Air Temp Water Temp Dewpoint Dewpoint Depression Visibility Wind Speed Wind Dir Waves Ship Positions

Pride

Last reported at 2015-Apr-21 03:18 UTC. Time now 2015-Apr-21 14:40 UTC.
Position N 54°42' E 020°25'.

Length 89 m; draft 3.5 m.

Type: Ship. MMSI: 236166000.

Date/timePositionNaut miles runAvg speedWind from/ knotsBaromVisibWave heightAir tempDewpointWater temp
2015-Apr-21 03:18N 54°42' E 020°25'8 8.2
2015-Apr-21 02:20N 54°41' E 020°11'7 9.1
2015-Apr-21 01:32N 54°38' E 019°59'7 7.0
2015-Apr-21 00:33N 54°39' E 019°47'0 0.1
2015-Apr-20 23:11N 54°39' E 019°48'0 0.0
2015-Apr-20 22:33N 54°39' E 019°48'0 0.0
2015-Apr-20 21:32N 54°39' E 019°48'0 0.0
2015-Apr-20 20:20N 54°39' E 019°48'0 0.0
2015-Apr-20 19:19N 54°39' E 019°48'0 0.0
2015-Apr-20 18:06N 54°39' E 019°48'0 0.0
2015-Apr-20 17:32N 54°39' E 019°48'0 0.0
2015-Apr-20 16:24N 54°39' E 019°48'0 0.0
2015-Apr-20 15:29N 54°39' E 019°48'0 0.0
2015-Apr-20 14:28N 54°39' E 019°48'0 0.0
2015-Apr-20 10:25N 54°39' E 019°48'0 0.0
2015-Apr-20 07:04N 54°39' E 019°48'0 0.0
2015-Apr-20 05:23N 54°39' E 019°48'0 0.0
2015-Apr-20 04:26N 54°39' E 019°48'0 0.0
2015-Apr-20 03:21N 54°39' E 019°48'0 0.0
2015-Apr-20 02:32N 54°39' E 019°48'0 0.0
2015-Apr-20 01:25N 54°39' E 019°48'0 0.1
2015-Apr-20 00:30N 54°39' E 019°48'0 0.0
2015-Apr-19 23:17N 54°39' E 019°48'0 0.0
2015-Apr-19 22:30N 54°39' E 019°48'0 0.0
2015-Apr-19 19:31N 54°39' E 019°48'0 0.0
2015-Apr-19 17:15N 54°39' E 019°48'0 0.0
2015-Apr-19 16:30N 54°39' E 019°48'0 0.0
2015-Apr-19 15:30N 54°39' E 019°48'0 0.0
2015-Apr-19 14:08N 54°39' E 019°48'0 0.0
2015-Apr-19 13:30N 54°39' E 019°48'0 0.0
2015-Apr-19 12:30N 54°39' E 019°48'0 0.0
2015-Apr-19 06:23N 54°39' E 019°47'0 0.0
2015-Apr-19 05:31N 54°39' E 019°47'0 0.0
2015-Apr-19 04:33N 54°39' E 019°48'0 0.0
2015-Apr-19 03:19N 54°39' E 019°48'0 0.0
2015-Apr-19 02:26N 54°39' E 019°48'0 0.0
2015-Apr-19 01:33N 54°39' E 019°48'6 6.1
2015-Apr-19 00:30N 54°43' E 019°40'8 8.9
2015-Apr-18 23:33N 54°51' E 019°35'10 9.6
2015-Apr-18 22:33N 55°00' E 019°41'179 4.7
2015-Apr-17 08:11N 55°15' E 014°28'6 9.3
2015-Apr-17 07:33N 55°10' E 014°21'41 9.4
2015-Apr-17 03:10N 55°13' E 013°10'6 9.7
2015-Apr-17 02:33N 55°14' E 012°59'10 9.6
2015-Apr-17 01:33N 55°17' E 012°43'8 8.1
2015-Apr-17 00:34N 55°24' E 012°40'10 9.9
2015-Apr-16 23:34N 55°34' E 012°42'1111.1
2015-Apr-16 22:34N 55°45' E 012°41'1110.8
2015-Apr-16 21:34N 55°56' E 012°37'1010.1
2015-Apr-16 20:34N 56°06' E 012°33'1111.1
2015-Apr-16 19:34N 56°12' E 012°17'1110.6
2015-Apr-16 18:33N 56°20' E 012°03'1510.9
2015-Apr-16 17:09N 56°35' E 011°57'811.0
2015-Apr-16 16:26N 56°42' E 011°53'1011.5
2015-Apr-16 15:34N 56°52' E 011°48'1111.1
2015-Apr-16 14:34N 57°02' E 011°41'1110.8
2015-Apr-16 13:32N 57°13' E 011°34'1010.3
2015-Apr-16 12:34N 57°22' E 011°28'1010.1
2015-Apr-16 11:34N 57°31' E 011°18'10 9.8
2015-Apr-16 10:33N 57°37' E 011°04'9 9.4
2015-Apr-16 09:33N 57°44' E 010°51'1210.2
2015-Apr-16 08:22N 57°47' E 010°29'172 9.1
2015-Apr-15 13:34N 55°33' E 007°14'10 9.9
2015-Apr-15 12:33N 55°23' E 007°08'1010.1
2015-Apr-15 11:33N 55°14' E 007°02'1010.3
2015-Apr-15 10:33N 55°04' E 006°56'1210.3
2015-Apr-15 09:21N 54°53' E 006°48'1110.4
2015-Apr-15 08:17N 54°42' E 006°41'810.4
2015-Apr-15 07:32N 54°35' E 006°37'38 9.5
2015-Apr-15 03:30N 53°57' E 006°22'9 9.5
2015-Apr-15 02:33N 53°49' E 006°24'9 8.9
2015-Apr-15 01:33N 53°40' E 006°22'9 7.6
2015-Apr-15 00:26N 53°36' E 006°35'1011.5
2015-Apr-14 23:34N 53°30' E 006°48'1212.2
2015-Apr-14 22:33N 53°20' E 007°00'7 6.9
2015-Apr-14 21:33N 53°20' E 007°11'0 0.4
2015-Apr-14 20:33N 53°20' E 007°12'0 0.0
2015-Apr-14 19:30N 53°20' E 007°12'0 0.0
2015-Apr-14 18:33N 53°20' E 007°12'0 0.0
2015-Apr-14 17:33N 53°20' E 007°12'0 0.0
2015-Apr-14 16:33N 53°20' E 007°12'0 0.0
2015-Apr-14 15:33N 53°20' E 007°12'0 0.0
2015-Apr-14 14:34N 53°20' E 007°12'0 0.0
2015-Apr-14 13:33N 53°20' E 007°12'0 0.1
2015-Apr-14 12:33N 53°20' E 007°12'2 1.7
2015-Apr-14 11:33N 53°20' E 007°09'7 7.1
2015-Apr-14 10:33N 53°23' E 006°58'9 8.7
2015-Apr-14 09:33N 53°29' E 006°49'18 8.5
2015-Apr-14 07:26N 53°37' E 006°21'36 7.4
2015-Apr-14 02:33N 53°56' E 007°13'9 9.1
2015-Apr-14 01:33N 53°58' E 007°28'8 8.2
2015-Apr-14 00:33N 53°57' E 007°42'9 9.2
2015-Apr-13 23:33N 53°52' E 007°56'1111.0
2015-Apr-13 22:33N 53°46' E 008°11'1313.4
2015-Apr-13 21:34N 53°37' E 008°28'10 9.6
2015-Apr-13 20:33N 53°28' E 008°30'7 7.1
2015-Apr-13 19:31N 53°20' E 008°30'0 0.0
2015-Apr-13 18:20N 53°20' E 008°30'0 0.0
2015-Apr-13 17:13N 53°20' E 008°30'0 0.0
2015-Apr-13 16:24N 53°20' E 008°30'0 0.0
2015-Apr-13 15:28N 53°20' E 008°30'0 0.0
2015-Apr-13 14:31N 53°20' E 008°30'0 0.0
2015-Apr-13 13:03N 53°20' E 008°30'0 0.0
2015-Apr-13 12:33N 53°20' E 008°30'0 0.0
2015-Apr-13 11:26N 53°20' E 008°30'0 0.0
2015-Apr-13 10:32N 53°20' E 008°30'0 0.0
2015-Apr-13 09:30N 53°20' E 008°30'0 0.0
2015-Apr-13 08:30N 53°20' E 008°30'0 0.0
2015-Apr-13 05:20N 53°20' E 008°30'0 0.0
2015-Apr-13 04:18N 53°20' E 008°30'0 0.0
2015-Apr-13 03:32N 53°20' E 008°30'0 0.0
2015-Apr-13 02:31N 53°20' E 008°30'0 0.0
2015-Apr-13 01:10N 53°20' E 008°30'0 0.0
2015-Apr-12 21:28N 53°20' E 008°30'0 0.0
2015-Apr-12 20:33N 53°20' E 008°30'5 4.6
2015-Apr-12 19:33N 53°25' E 008°30'8 7.5
2015-Apr-12 18:33N 53°32' E 008°34'9 8.9
2015-Apr-12 17:33N 53°39' E 008°24'1010.0
2015-Apr-12 16:33N 53°45' E 008°11'1010.1
2015-Apr-12 15:33N 53°51' E 007°57'1110.6
2015-Apr-12 14:33N 53°54' E 007°40'1010.1
2015-Apr-12 13:33N 54°03' E 007°33'1010.4
2015-Apr-12 12:33N 54°12' E 007°25'10 9.6
2015-Apr-12 11:32N 54°22' E 007°23'9 9.2
2015-Apr-12 10:33N 54°31' E 007°22'12 9.3
2015-Apr-12 09:17N 54°43' E 007°22'7 9.2
2015-Apr-12 08:33N 54°49' E 007°21'9 9.0
2015-Apr-12 07:33N 54°58' E 007°21'9 8.9
2015-Apr-12 06:33N 55°07' E 007°20'9 8.8
2015-Apr-12 05:33N 55°16' E 007°20'9 8.7
2015-Apr-12 04:33N 55°25' E 007°20'174 8.2
2015-Apr-11 07:30N 57°47' E 010°21'11 9.3
2015-Apr-11 06:18N 57°48' E 010°43'5 6.9
2015-Apr-11 05:32N 57°43' E 010°47'9 9.4
2015-Apr-11 04:33N 57°34' E 010°45'1211.1
2015-Apr-11 03:29N 57°22' E 010°44'  

Dump ship's entire track history